Time,TemperatureF,DewpointF,PressureIn,WindDirection,WindDirectionDegrees,WindSpeedMPH,WindSpeedGustMPH,Humidity,HourlyPrecipIn,Conditions,Clouds,dailyrainin,SoftwareType,DateUTC
2013-07-18 00:02:00,75.0,75.0,30.15,North,0,0.0,-999.0,100,-99.99,,,-99.99,,2013-07-18 05:02:00,
2013-07-18 00:22:00,73.0,73.0,30.15,North,0,0.0,-999.0,100,-99.99,,,-99.99,,2013-07-18 05:22:00,
2013-07-18 00:32:00,73.0,73.0,30.15,North,0,0.0,-999.0,100,-99.99,,,-99.99,,2013-07-18 05:32:00,
2013-07-18 00:42:00,73.0,73.0,30.15,North,0,0.0,-999.0,100,-99.99,,,-99.99,,2013-07-18 05:42:00,
2013-07-18 01:01:00,73.0,73.0,30.15,North,0,0.0,-999.0,100,-99.99,,,-99.99,,2013-07-18 06:01:00,
2013-07-18 01:11:00,73.0,73.0,30.15,North,0,0.0,-999.0,100,-99.99,,,-99.99,,2013-07-18 06:11:00,
2013-07-18 01:22:00,73.0,73.0,30.15,North,0,0.0,-999.0,100,-99.99,,,-99.99,,2013-07-18 06:22:00,
2013-07-18 01:43:00,72.0,72.0,30.15,North,0,0.0,-999.0,100,-99.99,,,-99.99,,2013-07-18 06:43:00,
2013-07-18 02:01:00,73.0,73.0,30.14,North,0,0.0,-999.0,100,-99.99,,,-99.99,,2013-07-18 07:01:00,
2013-07-18 02:22:00,73.0,73.0,30.14,North,0,0.0,-999.0,100,-99.99,,,-99.99,,2013-07-18 07:22:00,
2013-07-18 02:32:00,73.0,73.0,30.14,North,0,0.0,-999.0,100,-99.99,,,-99.99,,2013-07-18 07:32:00,
2013-07-18 02:42:00,73.0,73.0,30.14,North,0,0.0,-999.0,100,-99.99,,,-99.99,,2013-07-18 07:42:00,
2013-07-18 03:01:00,73.0,73.0,30.14,SSE,160,5.0,-999.0,100,-99.99,,,-99.99,,2013-07-18 08:01:00,
2013-07-18 03:11:00,73.0,73.0,30.13,SSE,160,6.0,-999.0,100,-99.99,,,-99.99,,2013-07-18 08:11:00,
2013-07-18 03:21:00,73.0,73.0,30.13,SSE,160,6.0,-999.0,100,-99.99,,,-99.99,,2013-07-18 08:21:00,
2013-07-18 03:42:00,73.0,73.0,30.12,SSE,160,5.0,-999.0,100,-99.99,,,-99.99,,2013-07-18 08:42:00,
2013-07-18 04:01:00,75.0,75.0,30.12,SSE,160,5.0,-999.0,100,-99.99,,,-99.99,,2013-07-18 09:01:00,
2013-07-18 04:21:00,75.0,75.0,30.11,South,170,7.0,-999.0,100,-99.99,,,-99.99,,2013-07-18 09:21:00,
2013-07-18 04:41:00,75.0,73.0,30.11,South,180,9.0,-999.0,94,-99.99,,,-99.99,,2013-07-18 09:41:00,
2013-07-18 05:01:00,75.0,73.0,30.10,South,180,10.0,-999.0,94,-99.99,,,-99.99,,2013-07-18 10:01:00,
2013-07-18 05:21:00,75.0,73.0,30.10,South,190,7.0,-999.0,94,-99.99,,,-99.99,,2013-07-18 10:21:00,
2013-07-18 05:43:00,75.0,73.0,30.10,South,180,6.0,-999.0,94,-99.99,,,-99.99,,2013-07-18 10:43:00,
2013-07-18 06:01:00,73.0,73.0,30.09,South,180,6.0,-999.0,100,-99.99,,,-99.99,,2013-07-18 11:01:00,
2013-07-18 06:22:00,73.0,73.0,30.09,South,180,7.0,-999.0,100,-99.99,,,-99.99,,2013-07-18 11:22:00,
2013-07-18 06:43:00,73.0,73.0,30.09,South,180,8.0,-999.0,100,-99.99,,,-99.99,,2013-07-18 11:43:00,
2013-07-18 06:52:00,73.0,73.0,30.09,South,180,7.0,-999.0,100,-99.99,,,-99.99,,2013-07-18 11:52:00,
2013-07-18 07:01:00,73.0,73.0,30.09,South,180,7.0,-999.0,100,-99.99,,,-99.99,,2013-07-18 12:01:00,
2013-07-18 07:22:00,73.0,73.0,30.08,South,180,7.0,-999.0,100,-99.99,,,-99.99,,2013-07-18 12:22:00,
2013-07-18 07:42:00,73.0,73.0,30.08,South,190,9.0,-999.0,100,-99.99,,,-99.99,,2013-07-18 12:42:00,
2013-07-18 08:01:00,75.0,73.0,30.08,South,180,9.0,-999.0,94,-99.99,,,-99.99,,2013-07-18 13:01:00,
2013-07-18 08:22:00,75.0,75.0,30.08,South,190,8.0,-999.0,100,-99.99,,,-99.99,,2013-07-18 13:22:00,
2013-07-18 08:32:00,77.0,75.0,30.07,SSW,200,5.0,-999.0,94,-99.99,,,-99.99,,2013-07-18 13:32:00,
2013-07-18 08:43:00,77.0,75.0,30.07,SSW,200,5.0,-999.0,94,-99.99,,,-99.99,,2013-07-18 13:43:00,
2013-07-18 09:02:00,77.0,73.0,30.07,South,190,8.0,-999.0,88,-99.99,,,-99.99,,2013-07-18 14:02:00,
2013-07-18 09:22:00,79.0,75.0,30.07,South,190,9.0,-999.0,88,-99.99,,,-99.99,,2013-07-18 14:22:00,
2013-07-18 09:33:00,79.0,75.0,30.07,SSW,200,8.0,-999.0,88,-99.99,,,-99.99,,2013-07-18 14:33:00,
2013-07-18 09:43:00,79.0,75.0,30.07,SSW,200,8.0,-999.0,88,-99.99,,,-99.99,,2013-07-18 14:43:00,
2013-07-18 10:01:00,81.0,75.0,30.06,SW,230,9.0,-999.0,83,-99.99,,,-99.99,,2013-07-18 15:01:00,
2013-07-18 10:11:00,81.0,75.0,30.06,South,190,12.0,17.0,83,-99.99,,,-99.99,,2013-07-18 15:11:00,
2013-07-18 10:22:00,81.0,75.0,30.06,South,190,12.0,17.0,83,-99.99,,,-99.99,,2013-07-18 15:22:00,
2013-07-18 10:32:00,82.0,77.0,30.05,SW,220,8.0,-999.0,83,-99.99,,,-99.99,,2013-07-18 15:32:00,
2013-07-18 10:42:00,82.0,77.0,30.05,SW,220,8.0,-999.0,83,-99.99,,,-99.99,,2013-07-18 15:42:00,
2013-07-18 11:01:00,82.0,77.0,30.05,SW,230,12.0,17.0,83,-99.99,,,-99.99,,2013-07-18 16:01:00,
2013-07-18 11:11:00,82.0,79.0,30.04,South,180,14.0,20.0,88,-99.99,,,-99.99,,2013-07-18 16:11:00,
2013-07-18 11:22:00,82.0,79.0,30.04,South,180,14.0,20.0,88,-99.99,,,-99.99,,2013-07-18 16:22:00,
2013-07-18 11:42:00,84.0,79.0,30.03,SSW,210,9.0,-999.0,83,-99.99,,,-99.99,,2013-07-18 16:42:00,
2013-07-18 12:33:00,88.0,79.0,30.02,SSW,200,12.0,27.0,74,-99.99,,,-99.99,,2013-07-18 17:33:00,
2013-07-18 12:43:00,88.0,79.0,30.02,SSW,200,12.0,27.0,74,-99.99,,,-99.99,,2013-07-18 17:43:00,
2013-07-18 13:01:00,88.0,79.0,30.01,South,190,12.0,20.0,74,-99.99,,,-99.99,,2013-07-18 18:01:00,
2013-07-18 14:02:00,90.0,75.0,30.00,WSW,240,15.0,24.0,62,-99.99,,,-99.99,,2013-07-18 19:02:00,
2013-07-18 14:22:00,90.0,75.0,29.99,SW,220,10.0,27.0,62,-99.99,,,-99.99,,2013-07-18 19:22:00,
2013-07-18 14:43:00,90.0,77.0,29.98,SSW,210,12.0,22.0,66,-99.99,,,-99.99,,2013-07-18 19:43:00,
2013-07-18 15:01:00,90.0,77.0,29.98,SSW,200,10.0,23.0,66,-99.99,,,-99.99,,2013-07-18 20:01:00,
2013-07-18 15:11:00,90.0,77.0,29.97,South,190,12.0,24.0,66,-99.99,,,-99.99,,2013-07-18 20:11:00,
2013-07-18 15:22:00,90.0,77.0,29.97,South,190,12.0,24.0,66,-99.99,,,-99.99,,2013-07-18 20:22:00,
2013-07-18 15:43:00,90.0,75.0,29.97,SW,230,14.0,23.0,62,-99.99,,,-99.99,,2013-07-18 20:43:00,
2013-07-18 16:01:00,91.0,77.0,29.96,SW,230,17.0,23.0,62,-99.99,,,-99.99,,2013-07-18 21:01:00,
2013-07-18 16:22:00,91.0,77.0,29.96,SW,220,14.0,21.0,62,-99.99,,,-99.99,,2013-07-18 21:22:00,
2013-07-18 16:43:00,90.0,77.0,29.95,South,190,14.0,27.0,66,-99.99,,,-99.99,,2013-07-18 21:43:00,
2013-07-18 17:01:00,91.0,79.0,29.94,SW,220,14.0,21.0,66,-99.99,,,-99.99,,2013-07-18 22:01:00,
2013-07-18 17:11:00,91.0,79.0,29.94,South,180,13.0,25.0,66,-99.99,,,-99.99,,2013-07-18 22:11:00,
2013-07-18 20:42:00,86.0,79.0,29.89,South,180,10.0,15.0,79,-99.99,,,-99.99,,2013-07-19 01:42:00,
2013-07-18 21:01:00,84.0,77.0,29.88,South,180,8.0,-999.0,79,-99.99,,,-99.99,,2013-07-19 02:01:00,
2013-07-18 21:22:00,84.0,77.0,29.88,South,190,12.0,-999.0,79,-99.99,,,-99.99,,2013-07-19 02:22:00,
2013-07-18 21:42:00,82.0,77.0,29.88,South,180,9.0,-999.0,83,-99.99,,,-99.99,,2013-07-19 02:42:00,
2013-07-18 21:52:00,82.0,75.0,29.89,South,180,9.0,-999.0,78,-99.99,,,-99.99,,2013-07-19 02:52:00,
2013-07-18 22:01:00,82.0,75.0,29.89,South,180,9.0,-999.0,78,-99.99,,,-99.99,,2013-07-19 03:01:00,
2013-07-18 22:22:00,82.0,75.0,29.89,South,190,9.0,-999.0,78,-99.99,,,-99.99,,2013-07-19 03:22:00,
2013-07-18 22:32:00,81.0,75.0,29.89,South,190,7.0,-999.0,83,-99.99,,,-99.99,,2013-07-19 03:32:00,
2013-07-18 22:42:00,81.0,75.0,29.89,South,190,7.0,-999.0,83,-99.99,,,-99.99,,2013-07-19 03:42:00,
2013-07-18 23:02:00,81.0,77.0,29.89,South,180,8.0,-999.0,88,-99.99,,,-99.99,,2013-07-19 04:02:00,
2013-07-18 23:22:00,81.0,75.0,29.90,SSW,200,7.0,-999.0,83,-99.99,,,-99.99,,2013-07-19 04:22:00,
2013-07-18 23:44:00,81.0,75.0,29.89,South,190,5.0,-999.0,83,-99.99,,,-99.99,,2013-07-19 04:44:00,